sensor_id;sensor_type;location;lat;lon;timestamp;P1;durP1;ratioP1;P2;durP2;ratioP2
28009;SDS011;15334;49.494;8.410;2023-02-28T00:01:33;3.10;;;1.60;;
28009;SDS011;15334;49.494;8.410;2023-02-28T00:04:01;2.17;;;1.50;;
28009;SDS011;15334;49.494;8.410;2023-02-28T00:06:30;4.05;;;1.63;;
28009;SDS011;15334;49.494;8.410;2023-02-28T00:08:58;5.55;;;2.00;;
28009;SDS011;15334;49.494;8.410;2023-02-28T00:11:26;4.88;;;1.70;;
28009;SDS011;15334;49.494;8.410;2023-02-28T00:13:55;5.05;;;1.58;;
28009;SDS011;15334;49.494;8.410;2023-02-28T00:16:23;3.30;;;2.05;;
28009;SDS011;15334;49.494;8.410;2023-02-28T00:18:51;4.80;;;2.20;;
28009;SDS011;15334;49.494;8.410;2023-02-28T00:21:19;4.70;;;2.10;;
28009;SDS011;15334;49.494;8.410;2023-02-28T00:23:49;3.42;;;1.80;;
28009;SDS011;15334;49.494;8.410;2023-02-28T00:26:17;5.75;;;2.03;;
28009;SDS011;15334;49.494;8.410;2023-02-28T00:28:47;5.25;;;1.73;;
28009;SDS011;15334;49.494;8.410;2023-02-28T00:31:15;5.55;;;2.45;;
28009;SDS011;15334;49.494;8.410;2023-02-28T00:33:43;6.75;;;2.53;;
28009;SDS011;15334;49.494;8.410;2023-02-28T00:36:14;4.47;;;2.10;;
28009;SDS011;15334;49.494;8.410;2023-02-28T00:38:42;3.72;;;1.90;;
28009;SDS011;15334;49.494;8.410;2023-02-28T00:41:11;4.72;;;1.92;;
28009;SDS011;15334;49.494;8.410;2023-02-28T00:43:39;6.13;;;2.78;;
28009;SDS011;15334;49.494;8.410;2023-02-28T00:46:08;4.20;;;1.90;;
28009;SDS011;15334;49.494;8.410;2023-02-28T00:48:36;7.10;;;2.20;;
28009;SDS011;15334;49.494;8.410;2023-02-28T00:51:04;4.85;;;2.28;;
28009;SDS011;15334;49.494;8.410;2023-02-28T00:53:32;3.95;;;2.15;;
28009;SDS011;15334;49.494;8.410;2023-02-28T00:56:00;4.72;;;2.17;;
28009;SDS011;15334;49.494;8.410;2023-02-28T00:58:30;3.45;;;1.90;;
28009;SDS011;15334;49.494;8.410;2023-02-28T01:00:58;3.58;;;1.88;;
28009;SDS011;15334;49.494;8.410;2023-02-28T01:03:26;4.40;;;2.28;;
28009;SDS011;15334;49.494;8.410;2023-02-28T01:05:54;4.38;;;2.35;;
28009;SDS011;15334;49.494;8.410;2023-02-28T01:08:22;5.68;;;2.63;;
28009;SDS011;15334;49.494;8.410;2023-02-28T01:10:50;7.20;;;2.65;;
28009;SDS011;15334;49.494;8.410;2023-02-28T01:13:21;5.00;;;2.30;;
28009;SDS011;15334;49.494;8.410;2023-02-28T01:15:54;5.57;;;2.60;;
28009;SDS011;15334;49.494;8.410;2023-02-28T01:18:25;7.55;;;2.30;;
28009;SDS011;15334;49.494;8.410;2023-02-28T01:20:53;5.18;;;2.63;;
28009;SDS011;15334;49.494;8.410;2023-02-28T01:23:22;5.18;;;2.75;;
28009;SDS011;15334;49.494;8.410;2023-02-28T01:25:50;5.38;;;2.20;;
28009;SDS011;15334;49.494;8.410;2023-02-28T01:28:19;5.13;;;2.30;;
28009;SDS011;15334;49.494;8.410;2023-02-28T01:30:47;9.20;;;2.53;;
28009;SDS011;15334;49.494;8.410;2023-02-28T01:33:17;6.82;;;2.58;;
28009;SDS011;15334;49.494;8.410;2023-02-28T01:35:45;4.25;;;2.40;;
28009;SDS011;15334;49.494;8.410;2023-02-28T01:38:13;5.88;;;2.72;;
28009;SDS011;15334;49.494;8.410;2023-02-28T01:40:48;9.63;;;3.13;;
28009;SDS011;15334;49.494;8.410;2023-02-28T01:43:19;7.10;;;3.00;;
28009;SDS011;15334;49.494;8.410;2023-02-28T01:45:49;8.13;;;2.60;;
28009;SDS011;15334;49.494;8.410;2023-02-28T01:48:21;6.05;;;2.83;;
28009;SDS011;15334;49.494;8.410;2023-02-28T01:50:53;7.43;;;2.78;;
28009;SDS011;15334;49.494;8.410;2023-02-28T01:53:30;6.47;;;2.78;;
28009;SDS011;15334;49.494;8.410;2023-02-28T01:56:02;7.07;;;3.15;;
28009;SDS011;15334;49.494;8.410;2023-02-28T01:58:33;5.97;;;2.10;;
28009;SDS011;15334;49.494;8.410;2023-02-28T02:01:02;6.07;;;2.83;;
28009;SDS011;15334;49.494;8.410;2023-02-28T02:03:31;7.10;;;3.70;;
28009;SDS011;15334;49.494;8.410;2023-02-28T02:05:59;8.30;;;3.40;;
28009;SDS011;15334;49.494;8.410;2023-02-28T02:08:28;6.35;;;3.15;;
28009;SDS011;15334;49.494;8.410;2023-02-28T02:10:57;7.00;;;3.22;;
28009;SDS011;15334;49.494;8.410;2023-02-28T02:13:35;5.22;;;2.63;;
28009;SDS011;15334;49.494;8.410;2023-02-28T02:16:23;6.22;;;2.88;;
28009;SDS011;15334;49.494;8.410;2023-02-28T02:19:06;5.03;;;2.58;;
28009;SDS011;15334;49.494;8.410;2023-02-28T02:25:05;5.18;;;2.83;;
28009;SDS011;15334;49.494;8.410;2023-02-28T02:27:48;8.68;;;3.35;;
28009;SDS011;15334;49.494;8.410;2023-02-28T02:30:45;5.78;;;2.97;;
28009;SDS011;15334;49.494;8.410;2023-02-28T02:33:31;6.53;;;3.10;;
28009;SDS011;15334;49.494;8.410;2023-02-28T02:36:23;9.25;;;3.45;;
28009;SDS011;15334;49.494;8.410;2023-02-28T02:38:58;5.53;;;2.85;;
28009;SDS011;15334;49.494;8.410;2023-02-28T02:41:33;10.02;;;2.92;;
28009;SDS011;15334;49.494;8.410;2023-02-28T02:44:10;8.45;;;3.60;;
28009;SDS011;15334;49.494;8.410;2023-02-28T02:46:43;6.60;;;3.53;;
28009;SDS011;15334;49.494;8.410;2023-02-28T02:49:13;9.32;;;3.55;;
28009;SDS011;15334;49.494;8.410;2023-02-28T02:51:49;7.15;;;3.13;;
28009;SDS011;15334;49.494;8.410;2023-02-28T02:54:25;9.07;;;3.95;;
28009;SDS011;15334;49.494;8.410;2023-02-28T02:56:59;8.45;;;3.50;;
28009;SDS011;15334;49.494;8.410;2023-02-28T02:59:36;5.47;;;3.15;;
28009;SDS011;15334;49.494;8.410;2023-02-28T03:02:08;8.10;;;3.72;;
28009;SDS011;15334;49.494;8.410;2023-02-28T03:04:40;8.05;;;3.55;;
28009;SDS011;15334;49.494;8.410;2023-02-28T03:07:14;6.60;;;3.58;;
28009;SDS011;15334;49.494;8.410;2023-02-28T03:09:50;5.85;;;3.28;;
28009;SDS011;15334;49.494;8.410;2023-02-28T03:12:26;7.13;;;3.28;;
28009;SDS011;15334;49.494;8.410;2023-02-28T03:15:10;11.20;;;3.67;;
28009;SDS011;15334;49.494;8.410;2023-02-28T03:17:54;7.80;;;3.60;;
28009;SDS011;15334;49.494;8.410;2023-02-28T03:20:35;8.15;;;3.20;;
28009;SDS011;15334;49.494;8.410;2023-02-28T03:23:13;7.28;;;3.50;;
28009;SDS011;15334;49.494;8.410;2023-02-28T03:25:51;8.32;;;3.95;;
28009;SDS011;15334;49.494;8.410;2023-02-28T03:28:27;7.60;;;3.65;;
28009;SDS011;15334;49.494;8.410;2023-02-28T03:31:02;8.75;;;3.95;;
28009;SDS011;15334;49.494;8.410;2023-02-28T03:33:38;9.35;;;3.63;;
28009;SDS011;15334;49.494;8.410;2023-02-28T03:36:15;6.20;;;3.20;;
28009;SDS011;15334;49.494;8.410;2023-02-28T03:38:49;9.25;;;3.53;;
28009;SDS011;15334;49.494;8.410;2023-02-28T03:41:21;8.18;;;3.90;;
28009;SDS011;15334;49.494;8.410;2023-02-28T03:43:54;7.53;;;3.80;;
28009;SDS011;15334;49.494;8.410;2023-02-28T03:48:58;7.45;;;3.30;;
28009;SDS011;15334;49.494;8.410;2023-02-28T03:51:39;8.13;;;3.63;;
28009;SDS011;15334;49.494;8.410;2023-02-28T03:54:11;7.50;;;4.15;;
28009;SDS011;15334;49.494;8.410;2023-02-28T03:56:45;6.38;;;3.25;;
28009;SDS011;15334;49.494;8.410;2023-02-28T03:59:20;8.00;;;4.13;;
28009;SDS011;15334;49.494;8.410;2023-02-28T04:01:55;6.97;;;3.70;;
28009;SDS011;15334;49.494;8.410;2023-02-28T04:04:34;7.55;;;3.72;;
28009;SDS011;15334;49.494;8.410;2023-02-28T04:07:07;7.60;;;3.88;;
28009;SDS011;15334;49.494;8.410;2023-02-28T04:12:16;7.75;;;3.92;;
28009;SDS011;15334;49.494;8.410;2023-02-28T04:14:45;9.60;;;3.53;;
28009;SDS011;15334;49.494;8.410;2023-02-28T04:17:18;7.15;;;3.53;;
28009;SDS011;15334;49.494;8.410;2023-02-28T04:19:47;6.30;;;3.55;;
28009;SDS011;15334;49.494;8.410;2023-02-28T04:22:16;7.20;;;3.75;;
28009;SDS011;15334;49.494;8.410;2023-02-28T04:24:49;7.72;;;3.35;;
28009;SDS011;15334;49.494;8.410;2023-02-28T04:27:22;6.10;;;3.35;;
28009;SDS011;15334;49.494;8.410;2023-02-28T04:32:25;6.38;;;3.30;;
28009;SDS011;15334;49.494;8.410;2023-02-28T04:35:02;8.18;;;3.80;;
28009;SDS011;15334;49.494;8.410;2023-02-28T04:37:37;8.05;;;4.00;;
28009;SDS011;15334;49.494;8.410;2023-02-28T04:40:09;8.82;;;3.38;;
28009;SDS011;15334;49.494;8.410;2023-02-28T04:42:43;5.85;;;2.95;;
28009;SDS011;15334;49.494;8.410;2023-02-28T04:45:22;5.90;;;3.00;;
28009;SDS011;15334;49.494;8.410;2023-02-28T04:47:56;13.35;;;3.92;;
28009;SDS011;15334;49.494;8.410;2023-02-28T04:50:31;8.48;;;4.53;;
28009;SDS011;15334;49.494;8.410;2023-02-28T04:53:03;11.60;;;5.25;;
28009;SDS011;15334;49.494;8.410;2023-02-28T04:55:35;9.90;;;4.20;;
28009;SDS011;15334;49.494;8.410;2023-02-28T04:58:10;7.80;;;3.90;;
28009;SDS011;15334;49.494;8.410;2023-02-28T05:00:40;8.98;;;4.40;;
28009;SDS011;15334;49.494;8.410;2023-02-28T05:03:11;13.48;;;4.40;;
28009;SDS011;15334;49.494;8.410;2023-02-28T05:05:46;7.40;;;3.53;;
28009;SDS011;15334;49.494;8.410;2023-02-28T05:08:25;7.30;;;3.65;;
28009;SDS011;15334;49.494;8.410;2023-02-28T05:10:57;8.93;;;3.97;;
28009;SDS011;15334;49.494;8.410;2023-02-28T05:13:34;7.47;;;3.42;;
28009;SDS011;15334;49.494;8.410;2023-02-28T05:16:08;7.03;;;3.50;;
28009;SDS011;15334;49.494;8.410;2023-02-28T05:18:57;12.68;;;5.30;;
28009;SDS011;15334;49.494;8.410;2023-02-28T05:21:30;9.73;;;4.00;;
28009;SDS011;15334;49.494;8.410;2023-02-28T05:24:04;6.47;;;3.75;;
28009;SDS011;15334;49.494;8.410;2023-02-28T05:26:38;12.48;;;3.85;;
28009;SDS011;15334;49.494;8.410;2023-02-28T05:29:12;8.38;;;3.72;;
28009;SDS011;15334;49.494;8.410;2023-02-28T05:31:49;13.82;;;4.30;;
28009;SDS011;15334;49.494;8.410;2023-02-28T05:34:20;8.45;;;3.80;;
28009;SDS011;15334;49.494;8.410;2023-02-28T05:36:48;8.10;;;3.53;;
28009;SDS011;15334;49.494;8.410;2023-02-28T05:39:25;11.65;;;3.90;;
28009;SDS011;15334;49.494;8.410;2023-02-28T05:41:58;10.80;;;4.13;;
28009;SDS011;15334;49.494;8.410;2023-02-28T05:44:29;9.73;;;4.55;;
28009;SDS011;15334;49.494;8.410;2023-02-28T05:47:17;8.00;;;4.40;;
28009;SDS011;15334;49.494;8.410;2023-02-28T05:49:49;14.60;;;4.03;;
28009;SDS011;15334;49.494;8.410;2023-02-28T05:52:20;7.93;;;3.38;;
28009;SDS011;15334;49.494;8.410;2023-02-28T05:54:52;8.85;;;3.80;;
28009;SDS011;15334;49.494;8.410;2023-02-28T05:57:24;8.80;;;3.08;;
28009;SDS011;15334;49.494;8.410;2023-02-28T05:59:53;6.93;;;3.08;;
28009;SDS011;15334;49.494;8.410;2023-02-28T06:02:25;7.63;;;3.58;;
28009;SDS011;15334;49.494;8.410;2023-02-28T06:04:53;6.65;;;3.70;;
28009;SDS011;15334;49.494;8.410;2023-02-28T06:07:21;7.80;;;3.38;;
28009;SDS011;15334;49.494;8.410;2023-02-28T06:09:49;8.52;;;3.50;;
28009;SDS011;15334;49.494;8.410;2023-02-28T06:12:17;9.13;;;3.70;;
28009;SDS011;15334;49.494;8.410;2023-02-28T06:14:48;5.78;;;3.20;;
28009;SDS011;15334;49.494;8.410;2023-02-28T06:17:16;9.50;;;3.05;;
28009;SDS011;15334;49.494;8.410;2023-02-28T06:19:44;6.97;;;3.63;;
28009;SDS011;15334;49.494;8.410;2023-02-28T06:22:14;6.97;;;3.28;;
28009;SDS011;15334;49.494;8.410;2023-02-28T06:24:42;9.00;;;3.83;;
28009;SDS011;15334;49.494;8.410;2023-02-28T06:27:10;11.13;;;3.92;;
28009;SDS011;15334;49.494;8.410;2023-02-28T06:29:38;6.85;;;3.20;;
28009;SDS011;15334;49.494;8.410;2023-02-28T06:32:11;5.35;;;3.22;;
28009;SDS011;15334;49.494;8.410;2023-02-28T06:34:39;7.15;;;3.65;;
28009;SDS011;15334;49.494;8.410;2023-02-28T06:37:07;11.63;;;3.90;;
28009;SDS011;15334;49.494;8.410;2023-02-28T06:39:35;8.07;;;3.42;;
28009;SDS011;15334;49.494;8.410;2023-02-28T06:42:03;6.85;;;3.88;;
28009;SDS011;15334;49.494;8.410;2023-02-28T06:44:31;8.23;;;3.88;;
28009;SDS011;15334;49.494;8.410;2023-02-28T06:47:02;8.57;;;3.60;;
28009;SDS011;15334;49.494;8.410;2023-02-28T06:49:33;8.90;;;4.05;;
28009;SDS011;15334;49.494;8.410;2023-02-28T06:52:02;9.13;;;3.78;;
28009;SDS011;15334;49.494;8.410;2023-02-28T06:54:30;9.02;;;3.58;;
28009;SDS011;15334;49.494;8.410;2023-02-28T06:56:58;8.95;;;4.07;;
28009;SDS011;15334;49.494;8.410;2023-02-28T06:59:26;8.25;;;3.75;;
28009;SDS011;15334;49.494;8.410;2023-02-28T07:01:54;9.18;;;3.70;;
28009;SDS011;15334;49.494;8.410;2023-02-28T07:04:22;8.75;;;3.92;;
28009;SDS011;15334;49.494;8.410;2023-02-28T07:06:52;10.40;;;4.72;;
28009;SDS011;15334;49.494;8.410;2023-02-28T07:09:22;13.70;;;4.38;;
28009;SDS011;15334;49.494;8.410;2023-02-28T07:11:56;7.13;;;4.18;;
28009;SDS011;15334;49.494;8.410;2023-02-28T07:14:24;11.73;;;4.07;;
28009;SDS011;15334;49.494;8.410;2023-02-28T07:16:52;8.73;;;3.90;;
28009;SDS011;15334;49.494;8.410;2023-02-28T07:19:20;9.25;;;5.03;;
28009;SDS011;15334;49.494;8.410;2023-02-28T07:21:48;9.43;;;3.95;;
28009;SDS011;15334;49.494;8.410;2023-02-28T07:24:17;7.03;;;3.70;;
28009;SDS011;15334;49.494;8.410;2023-02-28T07:26:45;7.93;;;4.53;;
28009;SDS011;15334;49.494;8.410;2023-02-28T07:29:13;8.23;;;3.88;;
28009;SDS011;15334;49.494;8.410;2023-02-28T07:31:44;12.15;;;4.18;;
28009;SDS011;15334;49.494;8.410;2023-02-28T07:34:12;10.77;;;3.58;;
28009;SDS011;15334;49.494;8.410;2023-02-28T07:36:40;7.18;;;4.13;;
28009;SDS011;15334;49.494;8.410;2023-02-28T07:39:08;13.50;;;4.32;;
28009;SDS011;15334;49.494;8.410;2023-02-28T07:41:38;14.20;;;4.85;;
28009;SDS011;15334;49.494;8.410;2023-02-28T07:44:10;8.13;;;4.05;;
28009;SDS011;15334;49.494;8.410;2023-02-28T07:46:38;11.05;;;5.05;;
28009;SDS011;15334;49.494;8.410;2023-02-28T07:49:06;8.57;;;3.50;;
28009;SDS011;15334;49.494;8.410;2023-02-28T07:51:34;9.40;;;3.70;;
28009;SDS011;15334;49.494;8.410;2023-02-28T07:54:03;9.73;;;4.15;;
28009;SDS011;15334;49.494;8.410;2023-02-28T07:56:31;10.60;;;4.88;;
28009;SDS011;15334;49.494;8.410;2023-02-28T07:59:00;8.70;;;3.90;;
28009;SDS011;15334;49.494;8.410;2023-02-28T08:01:28;8.90;;;3.83;;
28009;SDS011;15334;49.494;8.410;2023-02-28T08:03:57;10.68;;;5.07;;
28009;SDS011;15334;49.494;8.410;2023-02-28T08:06:25;9.52;;;4.22;;
28009;SDS011;15334;49.494;8.410;2023-02-28T08:08:53;9.25;;;4.53;;
28009;SDS011;15334;49.494;8.410;2023-02-28T08:11:22;8.63;;;4.05;;
28009;SDS011;15334;49.494;8.410;2023-02-28T08:13:51;9.25;;;3.85;;
28009;SDS011;15334;49.494;8.410;2023-02-28T08:16:21;9.25;;;4.22;;
28009;SDS011;15334;49.494;8.410;2023-02-28T08:18:49;7.65;;;4.38;;
28009;SDS011;15334;49.494;8.410;2023-02-28T08:21:20;8.48;;;4.55;;
28009;SDS011;15334;49.494;8.410;2023-02-28T08:23:50;11.77;;;5.10;;
28009;SDS011;15334;49.494;8.410;2023-02-28T08:26:18;13.75;;;4.45;;
28009;SDS011;15334;49.494;8.410;2023-02-28T08:28:47;10.00;;;4.47;;
28009;SDS011;15334;49.494;8.410;2023-02-28T08:31:16;10.20;;;4.85;;
28009;SDS011;15334;49.494;8.410;2023-02-28T08:33:46;8.70;;;4.30;;
28009;SDS011;15334;49.494;8.410;2023-02-28T08:38:45;10.35;;;4.65;;
28009;SDS011;15334;49.494;8.410;2023-02-28T08:41:16;7.57;;;4.00;;
28009;SDS011;15334;49.494;8.410;2023-02-28T08:43:44;9.70;;;4.72;;
28009;SDS011;15334;49.494;8.410;2023-02-28T08:46:12;10.93;;;5.43;;
28009;SDS011;15334;49.494;8.410;2023-02-28T08:48:41;11.95;;;4.90;;
28009;SDS011;15334;49.494;8.410;2023-02-28T08:51:13;10.73;;;5.22;;
28009;SDS011;15334;49.494;8.410;2023-02-28T08:53:45;7.82;;;4.40;;
28009;SDS011;15334;49.494;8.410;2023-02-28T08:56:16;14.27;;;5.85;;
28009;SDS011;15334;49.494;8.410;2023-02-28T08:58:44;9.70;;;4.40;;
28009;SDS011;15334;49.494;8.410;2023-02-28T09:01:14;8.48;;;4.63;;
28009;SDS011;15334;49.494;8.410;2023-02-28T09:03:43;15.80;;;4.90;;
28009;SDS011;15334;49.494;8.410;2023-02-28T09:06:14;9.75;;;5.05;;
28009;SDS011;15334;49.494;8.410;2023-02-28T09:08:43;10.23;;;5.22;;
28009;SDS011;15334;49.494;8.410;2023-02-28T09:11:11;11.35;;;4.50;;
28009;SDS011;15334;49.494;8.410;2023-02-28T09:13:45;12.65;;;5.38;;
28009;SDS011;15334;49.494;8.410;2023-02-28T09:16:15;10.63;;;5.03;;
28009;SDS011;15334;49.494;8.410;2023-02-28T09:18:43;14.85;;;5.43;;
28009;SDS011;15334;49.494;8.410;2023-02-28T09:21:16;10.52;;;4.65;;
28009;SDS011;15334;49.494;8.410;2023-02-28T09:23:46;11.23;;;4.60;;
28009;SDS011;15334;49.494;8.410;2023-02-28T09:26:16;9.50;;;4.88;;
28009;SDS011;15334;49.494;8.410;2023-02-28T09:28:46;8.73;;;4.95;;
28009;SDS011;15334;49.494;8.410;2023-02-28T09:31:17;11.05;;;4.97;;
28009;SDS011;15334;49.494;8.410;2023-02-28T09:33:48;8.73;;;4.68;;
28009;SDS011;15334;49.494;8.410;2023-02-28T09:36:18;10.45;;;5.32;;
28009;SDS011;15334;49.494;8.410;2023-02-28T09:38:50;8.80;;;4.38;;
28009;SDS011;15334;49.494;8.410;2023-02-28T09:41:26;11.23;;;5.55;;
28009;SDS011;15334;49.494;8.410;2023-02-28T09:44:02;9.30;;;4.53;;
28009;SDS011;15334;49.494;8.410;2023-02-28T09:46:42;10.90;;;4.40;;
28009;SDS011;15334;49.494;8.410;2023-02-28T09:49:16;11.00;;;4.80;;
28009;SDS011;15334;49.494;8.410;2023-02-28T09:51:58;9.13;;;4.60;;
28009;SDS011;15334;49.494;8.410;2023-02-28T09:54:29;10.68;;;5.07;;
28009;SDS011;15334;49.494;8.410;2023-02-28T09:57:06;8.73;;;4.70;;
28009;SDS011;15334;49.494;8.410;2023-02-28T09:59:48;8.32;;;4.45;;
28009;SDS011;15334;49.494;8.410;2023-02-28T10:02:44;11.50;;;5.97;;
28009;SDS011;15334;49.494;8.410;2023-02-28T10:05:31;12.40;;;4.13;;
28009;SDS011;15334;49.494;8.410;2023-02-28T10:08:13;11.38;;;5.90;;
28009;SDS011;15334;49.494;8.410;2023-02-28T10:10:46;15.52;;;5.97;;
28009;SDS011;15334;49.494;8.410;2023-02-28T10:13:20;9.25;;;4.50;;
28009;SDS011;15334;49.494;8.410;2023-02-28T10:15:55;9.20;;;4.53;;
28009;SDS011;15334;49.494;8.410;2023-02-28T10:18:34;7.55;;;4.20;;
28009;SDS011;15334;49.494;8.410;2023-02-28T10:21:19;8.75;;;4.68;;
28009;SDS011;15334;49.494;8.410;2023-02-28T10:23:56;9.25;;;4.93;;
28009;SDS011;15334;49.494;8.410;2023-02-28T10:26:31;9.23;;;4.57;;
28009;SDS011;15334;49.494;8.410;2023-02-28T10:29:02;10.30;;;5.22;;
28009;SDS011;15334;49.494;8.410;2023-02-28T10:31:37;9.75;;;5.00;;
28009;SDS011;15334;49.494;8.410;2023-02-28T10:34:34;11.77;;;5.68;;
28009;SDS011;15334;49.494;8.410;2023-02-28T10:37:19;11.15;;;5.43;;
28009;SDS011;15334;49.494;8.410;2023-02-28T10:40:30;10.25;;;5.32;;
28009;SDS011;15334;49.494;8.410;2023-02-28T10:43:20;11.15;;;5.38;;
28009;SDS011;15334;49.494;8.410;2023-02-28T10:46:11;11.52;;;4.97;;
28009;SDS011;15334;49.494;8.410;2023-02-28T10:49:07;11.10;;;4.75;;
28009;SDS011;15334;49.494;8.410;2023-02-28T10:52:11;10.75;;;5.15;;
28009;SDS011;15334;49.494;8.410;2023-02-28T11:01:33;10.63;;;4.60;;
28009;SDS011;15334;49.494;8.410;2023-02-28T11:04:37;11.73;;;4.88;;
28009;SDS011;15334;49.494;8.410;2023-02-28T11:07:46;10.50;;;5.28;;
28009;SDS011;15334;49.494;8.410;2023-02-28T11:10:39;10.17;;;5.17;;
28009;SDS011;15334;49.494;8.410;2023-02-28T11:13:17;10.43;;;5.57;;
28009;SDS011;15334;49.494;8.410;2023-02-28T11:16:04;9.02;;;4.75;;
28009;SDS011;15334;49.494;8.410;2023-02-28T11:18:57;9.65;;;5.32;;
28009;SDS011;15334;49.494;8.410;2023-02-28T11:21:53;14.43;;;5.40;;
28009;SDS011;15334;49.494;8.410;2023-02-28T11:24:35;9.05;;;5.45;;
28009;SDS011;15334;49.494;8.410;2023-02-28T11:27:25;10.05;;;4.72;;
28009;SDS011;15334;49.494;8.410;2023-02-28T11:30:32;8.65;;;4.47;;
28009;SDS011;15334;49.494;8.410;2023-02-28T11:33:31;9.18;;;5.07;;
28009;SDS011;15334;49.494;8.410;2023-02-28T11:36:15;12.77;;;5.22;;
28009;SDS011;15334;49.494;8.410;2023-02-28T11:38:47;11.32;;;4.90;;
28009;SDS011;15334;49.494;8.410;2023-02-28T11:41:29;8.10;;;4.63;;
28009;SDS011;15334;49.494;8.410;2023-02-28T11:44:14;9.18;;;4.88;;
28009;SDS011;15334;49.494;8.410;2023-02-28T11:47:01;10.35;;;4.57;;
28009;SDS011;15334;49.494;8.410;2023-02-28T11:49:40;9.15;;;4.93;;
28009;SDS011;15334;49.494;8.410;2023-02-28T11:52:19;9.00;;;4.90;;
28009;SDS011;15334;49.494;8.410;2023-02-28T11:54:59;9.40;;;5.38;;
28009;SDS011;15334;49.494;8.410;2023-02-28T11:57:50;8.93;;;5.00;;
28009;SDS011;15334;49.494;8.410;2023-02-28T12:00:35;7.32;;;4.20;;
28009;SDS011;15334;49.494;8.410;2023-02-28T12:03:19;8.60;;;4.75;;
28009;SDS011;15334;49.494;8.410;2023-02-28T12:06:00;7.38;;;4.57;;
28009;SDS011;15334;49.494;8.410;2023-02-28T12:08:41;10.90;;;5.00;;
28009;SDS011;15334;49.494;8.410;2023-02-28T12:11:23;7.22;;;3.90;;
28009;SDS011;15334;49.494;8.410;2023-02-28T12:14:12;9.73;;;3.90;;
28009;SDS011;15334;49.494;8.410;2023-02-28T12:16:53;9.40;;;5.15;;
28009;SDS011;15334;49.494;8.410;2023-02-28T12:19:34;9.40;;;5.25;;
28009;SDS011;15334;49.494;8.410;2023-02-28T12:22:22;13.25;;;4.80;;
28009;SDS011;15334;49.494;8.410;2023-02-28T12:25:02;7.97;;;4.80;;
28009;SDS011;15334;49.494;8.410;2023-02-28T12:27:51;7.10;;;4.22;;
28009;SDS011;15334;49.494;8.410;2023-02-28T12:30:22;9.90;;;4.57;;
28009;SDS011;15334;49.494;8.410;2023-02-28T12:32:56;9.98;;;4.55;;
28009;SDS011;15334;49.494;8.410;2023-02-28T12:35:32;9.25;;;5.20;;
28009;SDS011;15334;49.494;8.410;2023-02-28T12:38:05;9.23;;;4.28;;
28009;SDS011;15334;49.494;8.410;2023-02-28T12:40:44;13.40;;;5.53;;
28009;SDS011;15334;49.494;8.410;2023-02-28T12:43:16;10.50;;;5.65;;
28009;SDS011;15334;49.494;8.410;2023-02-28T12:45:46;10.93;;;5.10;;
28009;SDS011;15334;49.494;8.410;2023-02-28T12:48:20;9.68;;;5.25;;
28009;SDS011;15334;49.494;8.410;2023-02-28T12:50:52;10.80;;;6.15;;
28009;SDS011;15334;49.494;8.410;2023-02-28T12:53:25;11.73;;;5.07;;
28009;SDS011;15334;49.494;8.410;2023-02-28T12:56:01;9.57;;;5.18;;
28009;SDS011;15334;49.494;8.410;2023-02-28T12:58:37;9.93;;;5.22;;
28009;SDS011;15334;49.494;8.410;2023-02-28T13:01:15;8.83;;;5.23;;
28009;SDS011;15334;49.494;8.410;2023-02-28T13:04:32;9.20;;;4.97;;
28009;SDS011;15334;49.494;8.410;2023-02-28T13:07:21;10.63;;;5.38;;
28009;SDS011;15334;49.494;8.410;2023-02-28T13:10:12;11.45;;;6.05;;
28009;SDS011;15334;49.494;8.410;2023-02-28T13:12:47;11.95;;;6.20;;
28009;SDS011;15334;49.494;8.410;2023-02-28T13:15:18;11.20;;;5.75;;
28009;SDS011;15334;49.494;8.410;2023-02-28T13:17:51;9.43;;;5.47;;
28009;SDS011;15334;49.494;8.410;2023-02-28T13:20:21;10.98;;;5.72;;
28009;SDS011;15334;49.494;8.410;2023-02-28T13:22:53;11.60;;;6.18;;
28009;SDS011;15334;49.494;8.410;2023-02-28T13:31:25;11.13;;;6.25;;
28009;SDS011;15334;49.494;8.410;2023-02-28T13:34:05;23.27;;;6.78;;
28009;SDS011;15334;49.494;8.410;2023-02-28T13:36:40;9.88;;;5.85;;
28009;SDS011;15334;49.494;8.410;2023-02-28T13:42:33;13.05;;;6.38;;
28009;SDS011;15334;49.494;8.410;2023-02-28T13:45:20;12.25;;;6.00;;
28009;SDS011;15334;49.494;8.410;2023-02-28T13:47:54;11.15;;;5.57;;
28009;SDS011;15334;49.494;8.410;2023-02-28T13:50:29;10.50;;;5.82;;
28009;SDS011;15334;49.494;8.410;2023-02-28T13:53:21;10.80;;;5.55;;
28009;SDS011;15334;49.494;8.410;2023-02-28T13:56:07;10.65;;;6.40;;
28009;SDS011;15334;49.494;8.410;2023-02-28T14:04:38;14.10;;;6.10;;
28009;SDS011;15334;49.494;8.410;2023-02-28T14:07:17;12.57;;;5.30;;
28009;SDS011;15334;49.494;8.410;2023-02-28T14:09:50;12.40;;;6.37;;
28009;SDS011;15334;49.494;8.410;2023-02-28T14:15:38;13.55;;;6.18;;
28009;SDS011;15334;49.494;8.410;2023-02-28T14:18:20;13.70;;;6.03;;
28009;SDS011;15334;49.494;8.410;2023-02-28T14:20:54;12.63;;;6.90;;
28009;SDS011;15334;49.494;8.410;2023-02-28T14:23:34;13.82;;;6.05;;
28009;SDS011;15334;49.494;8.410;2023-02-28T14:26:31;9.90;;;4.80;;
28009;SDS011;15334;49.494;8.410;2023-02-28T14:32:26;12.65;;;5.97;;
28009;SDS011;15334;49.494;8.410;2023-02-28T14:34:59;11.27;;;5.18;;
28009;SDS011;15334;49.494;8.410;2023-02-28T14:37:41;11.82;;;6.47;;
28009;SDS011;15334;49.494;8.410;2023-02-28T14:40:22;13.77;;;6.50;;
28009;SDS011;15334;49.494;8.410;2023-02-28T14:43:00;12.00;;;6.28;;
28009;SDS011;15334;49.494;8.410;2023-02-28T14:45:33;12.00;;;6.95;;
28009;SDS011;15334;49.494;8.410;2023-02-28T14:48:08;14.02;;;6.35;;
28009;SDS011;15334;49.494;8.410;2023-02-28T14:50:38;10.63;;;5.88;;
28009;SDS011;15334;49.494;8.410;2023-02-28T14:53:10;10.07;;;5.93;;
28009;SDS011;15334;49.494;8.410;2023-02-28T14:55:46;13.55;;;6.10;;
28009;SDS011;15334;49.494;8.410;2023-02-28T14:58:20;11.85;;;5.88;;
28009;SDS011;15334;49.494;8.410;2023-02-28T15:00:54;12.07;;;6.10;;
28009;SDS011;15334;49.494;8.410;2023-02-28T15:03:32;12.73;;;6.35;;
28009;SDS011;15334;49.494;8.410;2023-02-28T15:06:13;12.05;;;6.50;;
28009;SDS011;15334;49.494;8.410;2023-02-28T15:08:48;10.43;;;6.28;;
28009;SDS011;15334;49.494;8.410;2023-02-28T15:11:35;13.15;;;6.97;;
28009;SDS011;15334;49.494;8.410;2023-02-28T15:14:06;12.18;;;6.50;;
28009;SDS011;15334;49.494;8.410;2023-02-28T15:16:36;12.10;;;6.57;;
28009;SDS011;15334;49.494;8.410;2023-02-28T15:19:13;14.60;;;6.47;;
28009;SDS011;15334;49.494;8.410;2023-02-28T15:21:47;12.95;;;5.85;;
28009;SDS011;15334;49.494;8.410;2023-02-28T15:24:19;14.68;;;6.53;;
28009;SDS011;15334;49.494;8.410;2023-02-28T15:27:03;12.82;;;6.25;;
28009;SDS011;15334;49.494;8.410;2023-02-28T15:29:37;13.57;;;6.80;;
28009;SDS011;15334;49.494;8.410;2023-02-28T15:32:21;12.05;;;6.65;;
28009;SDS011;15334;49.494;8.410;2023-02-28T15:35:25;13.50;;;6.65;;
28009;SDS011;15334;49.494;8.410;2023-02-28T15:37:56;13.15;;;6.35;;
28009;SDS011;15334;49.494;8.410;2023-02-28T15:40:31;13.65;;;6.63;;
28009;SDS011;15334;49.494;8.410;2023-02-28T15:43:13;13.80;;;6.75;;
28009;SDS011;15334;49.494;8.410;2023-02-28T15:45:57;12.10;;;6.55;;
28009;SDS011;15334;49.494;8.410;2023-02-28T15:48:28;12.27;;;5.88;;
28009;SDS011;15334;49.494;8.410;2023-02-28T15:51:02;13.35;;;6.70;;
28009;SDS011;15334;49.494;8.410;2023-02-28T15:53:36;14.80;;;6.53;;
28009;SDS011;15334;49.494;8.410;2023-02-28T15:56:18;14.77;;;6.72;;
28009;SDS011;15334;49.494;8.410;2023-02-28T15:58:53;9.98;;;5.80;;
28009;SDS011;15334;49.494;8.410;2023-02-28T16:01:24;11.70;;;6.90;;
28009;SDS011;15334;49.494;8.410;2023-02-28T16:03:59;12.68;;;6.25;;
28009;SDS011;15334;49.494;8.410;2023-02-28T16:06:35;14.35;;;6.57;;
28009;SDS011;15334;49.494;8.410;2023-02-28T16:09:13;18.10;;;7.85;;
28009;SDS011;15334;49.494;8.410;2023-02-28T16:11:48;10.23;;;5.90;;